Valle Toledo, Valles Caldera, New Mexico Weather observations

Data are for 10 minute period ending at time listed.
 Day   Time   Solar   Ave.   Ave.  Ave.  Vector  Max.   Baro.   Total    
  of    of     Rad.   Air    Rel.  Wind   Wind   Wind  Press.  Precip.   
Year   Day            Temp.  Hum.  Speed  Dir.   Gust                    
2016   (MST)  Kw/m2    F      %     mph   deg.    mph    mb.     in.     
-------------------------------------------------------------------------
 179   16:30   0.08   68.7    34    7.0   116    14.3   739.5    0.00 
 179   16:40   0.04   67.3    37    6.0    82    12.5   739.8    0.00 
 179   16:50   0.02   65.7    38    8.7    80    15.5   739.9    0.00 
 179   17:00   0.02   64.8    41    5.3    62    13.7   740.1    0.00 
 179   17:10   0.03   63.6    45    8.9    90    14.9   740.4    0.00 
 179   17:20   0.02   60.2    56    9.7    92    17.3   740.4    0.01 
 179   17:30   0.02   59.8    55   10.1    85    14.9   740.6    0.00 
 179   17:40   0.02   60.8    50   10.8    90    20.3   740.8    0.00 
 179   17:50   0.01   60.9    49   12.5    88    20.9   740.7    0.00 
 179   18:00   0.02   60.8    48   12.3    83    20.9   740.6    0.00 
 179   18:10   0.02   61.2    46   11.2    86    19.1   740.5    0.00 
 179   18:20   0.12   62.2    45    8.9    89    16.7   740.5    0.00 
 179   18:30   0.06   63.0    44    5.9    96    10.2   740.6    0.00 
 179   18:40   0.07   62.0    46    3.1   149     6.6   740.5    0.00 
 179   18:50   0.13   63.5    42    4.6   115    10.2   740.5    0.00 
 179   19:00   0.13   63.0    44   13.3   104    29.2   740.3    0.00 
 179   19:10   0.09   61.4    46   10.2    95    18.5   740.1    0.00 
 179   19:20   0.05   61.4    44    7.8   101    16.1   740.2    0.00 
 179   19:30   0.01   61.9    40    5.7    85    15.5   740.3    0.00 
 179   19:40   0.00   61.3    42    4.4    78    10.8   740.4    0.00 
 179   19:50   0.00   60.9    43    4.5   102     8.4   740.5    0.00 
 179   20:00   0.00   60.5    43    1.2   352     4.2   740.6    0.00 
 179   20:10   0.00   59.6    45    2.4   311     4.8   740.6    0.00 
 179   20:20   0.00   57.9    50    4.0     6     5.4   740.6    0.00 
 179   20:30   0.00   57.3    52    3.2    28     4.8   740.6    0.00 
 179   20:40   0.00   56.7    53    3.1    34     4.2   740.6    0.00 
 179   20:50   0.00   56.2    54    2.0    44     3.6   740.7    0.00 
 179   21:00   0.00   56.3    53    2.0    74     4.8   740.7    0.00 
 179   21:10   0.00   56.2    55    2.5    95     4.2   740.8    0.00 
 179   21:20   0.00   55.5    55    2.8    37     4.2   740.9    0.00 
 179   21:30   0.00   55.3    54    2.5    54     4.2   741.0    0.00 
 179   21:40   0.00   55.8    53    2.7    59     4.2   741.0    0.00 
 179   21:50   0.00   55.7    52    2.3    62     4.8   741.0    0.00 
 179   22:00   0.00   56.0    50    2.0    50     4.2   741.0    0.00 
 179   22:10   0.00   55.5    52    2.1   359     3.0   741.0    0.00 
 179   22:20   0.00   55.0    52    1.8    20     3.6   740.9    0.00 
 179   22:30   0.00   56.2    48    1.4    80     4.2   740.9    0.00 
 179   22:40   0.00   57.8    47    3.4   119     6.0   740.9    0.00 
 179   22:50   0.00   58.5    48    4.8   105    10.2   741.0    0.00 
 179   23:00   0.00   59.5    50    6.0   110    12.5   741.1    0.00 
 179   23:10   0.00   59.4    52    4.3   105     7.8   741.2    0.00 
 179   23:20   0.00   59.0    54    5.3    97    11.3   741.3    0.00 
 179   23:30   0.00   58.6    55    3.3   105     8.4   741.4    0.00 
 179   23:40   0.00   57.1    60    3.0    57     6.0   741.3    0.00 
 179   23:50   0.00   56.6    61    3.0    49     4.8   741.3    0.00 
 180    0:00   0.00   56.1    63    2.6    51     8.4   741.4    0.00 
 180    0:10   0.00   56.0    64    2.3    42     4.2   741.4    0.00 
 180    0:20   0.00   54.6    67    2.2    44     4.2   741.3    0.00 
 180    0:30   0.00   53.9    69    3.2    49     4.8   741.3    0.00 
 180    0:40   0.00   53.7    70    3.2    33     4.8   741.2    0.00 
 180    0:50   0.00   53.1    71    3.0    45     4.2   741.2    0.00 
 180    1:00   0.00   52.8    72    3.3    45     4.2   741.1    0.00 
 180    1:10   0.00   52.9    72    3.8    56     5.4   741.1    0.00 
 180    1:20   0.00   52.4    73    4.1    39     5.4   741.2    0.00 
 180    1:30   0.00   52.1    74    3.9    62     5.4   741.2    0.00 
 180    1:40   0.00   52.4    74    4.5    64     6.6   741.1    0.00 
 180    1:50   0.00   52.1    74    3.3    60     4.8   741.2    0.00 
 180    2:00   0.00   51.7    75    0.8    51     2.4   741.2    0.00 
 180    2:10   0.00   50.9    77    3.1    30     4.2   741.2    0.00 
 180    2:20   0.00   50.4    79    3.1    40     4.2   741.3    0.00 
 180    2:30   0.00   50.1    80    1.6     6     3.0   741.1    0.00 
 180    2:40   0.00   49.6    81    2.6    24     3.6   741.1    0.00 
 180    2:50   0.00   49.5    82    4.2    37     5.4   740.9    0.00 
 180    3:00   0.00   49.4    81    3.1    34     4.8   740.9    0.00 
 180    3:10   0.00   49.0    82    3.5    45     4.2   741.0    0.00 
 180    3:20   0.00   48.7    83    2.0    23     3.0   741.0    0.00 
 180    3:30   0.00   48.6    84    2.8    37     3.6   741.1    0.00 
 180    3:40   0.00   48.2    84    2.4    29     4.2   741.0    0.00 
 180    3:50   0.00   48.1    84    3.8    40     4.8   741.1    0.00 
 180    4:00   0.00   48.2    82    3.0    32     4.8   741.2    0.00 
 180    4:10   0.00   47.9    81    4.2    38     4.8   741.2    0.00 
 180    4:20   0.00   48.2    81    4.1    42     4.8   741.2    0.00 
 180    4:30   0.00   48.3    83    2.7    39     4.2   741.3    0.00 
 180    4:40   0.00   48.3    84    2.6    55     3.6   741.4    0.00 
 180    4:50   0.00   48.8    84    3.7    44     4.8   741.5    0.00 
 180    5:00   0.01   49.1    85    2.5    45     4.2   741.5    0.00 
 180    5:10   0.01   48.4    84    2.0   321     3.6   741.6    0.00 
 180    5:20   0.01   48.1    86    0.8    27     3.0   741.5    0.00 
 180    5:30   0.01   48.2    87    1.4    15     4.2   741.5    0.00 
 180    5:40   0.02   48.7    87    1.6    44     3.6   741.5    0.00 
 180    5:50   0.02   50.1    83    2.3    79     4.2   741.6    0.00 
 180    6:00   0.02   50.1    81    2.4    30     3.6   741.7    0.00 
 180    6:10   0.02   50.0    81    2.5    55     4.2   741.7    0.00 
 180    6:20   0.04   50.3    80    2.7    42     4.2   741.9    0.00 
 180    6:30   0.07   50.6    80    2.9    47     3.6   741.9    0.00 
 180    6:40   0.23   53.5    74    1.9    57     3.6   741.9    0.00 
 180    6:50   0.28   57.4    65    2.1    62     3.6   741.9    0.00 
 180    7:00   0.28   58.6    66    3.4   145     6.6   742.0    0.00 
 180    7:10   0.34   58.8    65    4.1   155     5.4   742.1    0.00 
 180    7:20   0.39   59.6    64    4.1   161     6.0   742.2    0.00 
 180    7:30   0.42   60.0    64    3.6   151     6.0   742.2    0.00 
 180    7:40   0.45   60.6    62    3.8   149     6.0   742.3    0.00 
 180    7:50   0.48   61.8    55    4.7   154     9.0   742.3    0.00 
 180    8:00   0.51   62.8    46    6.7   145    12.5   742.2    0.00 
 180    8:10   0.54   63.0    46    7.5   140    12.5   742.2    0.00 
 180    8:20   0.57   63.4    46    7.1   142    11.9   742.3    0.00 
 180    8:30   0.60   64.2    46    6.3   138    10.8   742.3    0.00 
 180    8:40   0.62   65.2    44    5.3   127    10.8   742.4    0.00 
 180    8:50   0.65   65.5    46    5.0   154     7.8   742.4    0.00 
 180    9:00   0.68   66.2    43    4.9   176     7.8   742.3    0.00 
 180    9:10   0.70   66.3    41    5.1   173    10.8   742.3    0.00 
 180    9:20   0.73   66.9    41    5.4   163     9.6   742.2    0.00 
 180    9:30   0.75   66.6    41    5.6   153     9.0   742.2    0.00 
 180    9:40   0.77   67.6    38    4.2   178     9.6   742.1    0.00 
 180    9:50   0.79   68.2    35    5.3   166     9.0   742.1    0.00 
 180   10:00   0.81   68.8    34    5.9   162    12.5   742.1    0.00 
 180   10:10   0.83   69.0    33    6.0   160     9.6   742.2    0.00 
 180   10:20   0.84   69.1    33    6.2   165    11.3   742.1    0.00 
 180   10:30   0.86   69.6    33    7.0   138    13.7   742.1    0.00 
 180   10:40   0.88   69.7    32    8.6   152    13.7   742.0    0.00 
 180   10:50   0.88   69.7    32    6.0   172    11.9   742.0    0.00 
 180   11:00   0.92   70.2    32    6.3   164    14.3   741.9    0.00 
 180   11:10   0.89   70.3    34    7.3   169    14.9   741.8    0.00 
 180   11:20   0.93   70.5    33    8.2   153    14.9   741.7    0.00 
 180   11:30   0.95   70.5    32    9.2   159    16.1   741.7    0.00 
 180   11:40   0.96   70.9    32    7.7   158    14.9   741.7    0.00 
 180   11:50   0.51   69.6    34    7.3   156    14.9   741.5    0.00 
 180   12:00   0.94   70.3    34    8.8   152    17.3   741.4    0.00 
 180   12:10   0.94   71.1    35    8.9   151    14.3   741.2    0.00 
 180   12:20   0.86   70.8    34    8.6   159    16.7   741.1    0.00 
 180   12:30   0.69   70.6    35    7.2   161    15.5   740.9    0.00 
 180   12:40   0.95   71.0    34    8.3   151    16.7   740.9    0.00 
 180   12:50   0.94   72.5    32    7.4   143    13.7   740.7    0.00 
 180   13:00   0.92   73.0    32    6.0   165    11.3   740.5    0.00 
 180   13:10   0.93   72.9    31    7.3   171    14.9   740.4    0.00 
 180   13:20   0.56   72.1    30    6.7   175    12.5   740.2    0.00 
 180   13:30   0.89   72.1    32    5.7   175     9.0   740.2    0.00 
 180   13:40   0.55   72.8    32    7.8   170    16.7   740.1    0.00 
 180   13:50   0.44   71.8    32    7.5   150    14.3   740.1    0.00 
 180   14:00   0.36   70.7    33    5.0   166    10.2   740.1    0.00 
 180   14:10   0.52   71.4    32    6.9   141    13.7   740.0    0.00 
 180   14:20   0.49   71.7    28    6.1   127    13.7   739.8    0.00 
 180   14:30   0.36   71.5    30    7.7   159    16.7   739.6    0.00 
 180   14:40   0.24   70.3    30    6.9   141    10.8   739.6    0.00 
 180   14:50   0.24   70.1    30    5.6   137    10.8   739.6    0.00 
 180   15:00   0.23   70.3    31    4.3   154     7.2   739.7    0.00 
 180   15:10   0.24   70.3    30    4.1   156     6.6   739.8    0.00 
 180   15:20   0.26   70.7    30    3.7   154     6.6   739.8    0.00 
 180   15:30   0.33   71.0    30    4.2   160     7.8   739.8    0.00 
 180   15:40   0.46   71.5    29    6.6   150    10.8   739.7    0.00 
 180   15:50   0.64   72.6    28    6.2   154    10.2   739.6    0.00 
 180   16:00   0.71   74.7    27    5.9   172    10.8   739.6    0.00 
 180   16:10   0.47   74.5    26    5.5   193     9.0   739.5    0.00 
 180   16:20   0.13   71.4    29    6.3   253    17.9   739.5    0.00 

Return to Valle Toledo, Valles Caldera graphs page.


Western Regional Climate Center,wrcc@dri.edu